Time;durP1;ratioP1;P1;durP2;ratioP2;P2;SDS_P1;SDS_P2;PMS_P1;PMS_P2;Temp;Humidity;BMP_temperature;BMP_pressure;BME280_temperature;BME280_humidity;BME280_pressure;Samples;Min_cycle;Max_cycle;Signal;HPM_P1;HPM_P2
2021/07/25 00:00:05;;;;;;;13.20;11.70;;;;;;;;;;5087828;28;20196;-79
2021/07/25 00:02:33;;;;;;;13.03;11.73;;;;;;;;;;5085665;28;20191;-79
2021/07/25 00:04:59;;;;;;;12.37;11.17;;;;;;;;;;5071253;28;20185;-79
2021/07/25 00:07:26;;;;;;;12.70;11.37;;;;;;;;;;5086887;28;20610;-79
2021/07/25 00:09:52;;;;;;;13.03;11.63;;;;;;;;;;5052670;28;20234;-80
2021/07/25 00:12:18;;;;;;;13.23;11.70;;;;;;;;;;5071290;28;20190;-79
2021/07/25 00:14:44;;;;;;;13.13;11.83;;;;;;;;;;5071934;28;20177;-79
2021/07/25 00:17:11;;;;;;;14.17;12.77;;;;;;;;;;5071622;28;20263;-79
2021/07/25 00:19:37;;;;;;;11.90;10.70;;;;;;;;;;5071193;28;20175;-79
2021/07/25 00:22:04;;;;;;;13.30;11.93;;;;;;;;;;5086320;28;20635;-79
2021/07/25 00:24:32;;;;;;;13.43;12.13;;;;;;;;;;5053094;28;20173;-79
2021/07/25 00:27:00;;;;;;;12.50;11.30;;;;;;;;;;5071619;28;20284;-79
2021/07/25 00:29:29;;;;;;;13.63;12.23;;;;;;;;;;5071175;28;20177;-79
2021/07/25 00:31:56;;;;;;;12.57;11.27;;;;;;;;;;5086445;28;20717;-79
2021/07/25 00:34:21;;;;;;;13.20;11.90;;;;;;;;;;5085927;28;20192;-80
2021/07/25 00:36:48;;;;;;;13.27;11.97;;;;;;;;;;5069911;28;20185;-79
2021/07/25 00:39:13;;;;;;;12.90;11.50;;;;;;;;;;5052436;28;20185;-79
2021/07/25 00:41:40;;;;;;;12.00;10.80;;;;;;;;;;5086432;28;20187;-80
2021/07/25 00:44:06;;;;;;;12.23;10.93;;;;;;;;;;5086784;28;20185;-80
2021/07/25 00:46:41;;;;;;;13.10;11.80;;;;;;;;;;5071007;28;20176;-79
2021/07/25 00:49:07;;;;;;;13.07;11.73;;;;;;;;;;5070874;28;20170;-80
2021/07/25 00:51:33;;;;;;;12.10;10.90;;;;;;;;;;5056614;28;20210;-79
2021/07/25 00:54:00;;;;;;;11.97;10.77;;;;;;;;;;5069939;28;20185;-80
2021/07/25 00:56:26;;;;;;;14.80;11.93;;;;;;;;;;5053601;28;20234;-79
2021/07/25 00:58:52;;;;;;;12.50;11.20;;;;;;;;;;5074966;28;20177;-79
2021/07/25 01:01:20;;;;;;;13.07;11.60;;;;;;;;;;5075219;28;20186;-80
2021/07/25 01:04:05;;;;;;;12.20;11.00;;;;;;;;;;5074358;28;20171;-80
2021/07/25 01:06:47;;;;;;;12.57;11.27;;;;;;;;;;5055794;28;20203;-79
2021/07/25 01:09:14;;;;;;;13.73;11.67;;;;;;;;;;5074352;28;20185;-80
2021/07/25 01:11:44;;;;;;;13.43;11.83;;;;;;;;;;5090372;28;20199;-79
2021/07/25 01:14:10;;;;;;;12.73;11.43;;;;;;;;;;5089882;28;20174;-79
2021/07/25 01:16:36;;;;;;;12.33;11.10;;;;;;;;;;5074828;28;20200;-79
2021/07/25 01:19:02;;;;;;;13.07;10.97;;;;;;;;;;5073974;28;20607;-79
2021/07/25 01:21:28;;;;;;;12.70;11.33;;;;;;;;;;5074123;28;20179;-80
2021/07/25 01:23:55;;;;;;;11.47;10.23;;;;;;;;;;5055256;28;20216;-80
2021/07/25 01:26:25;;;;;;;11.97;10.70;;;;;;;;;;5074784;28;20545;-80
2021/07/25 01:28:53;;;;;;;12.53;11.07;;;;;;;;;;5056808;28;20196;-79
2021/07/25 01:31:21;;;;;;;11.53;10.43;;;;;;;;;;5074953;28;20197;-79
2021/07/25 01:33:48;;;;;;;11.40;10.27;;;;;;;;;;5056303;28;20678;-79
2021/07/25 01:36:15;;;;;;;11.50;10.30;;;;;;;;;;5055220;28;20176;-80
2021/07/25 01:38:41;;;;;;;11.10;10.00;;;;;;;;;;5074388;28;20176;-79
2021/07/25 01:41:08;;;;;;;11.23;10.07;;;;;;;;;;5074396;28;20551;-80
2021/07/25 01:43:35;;;;;;;11.77;10.57;;;;;;;;;;5073547;28;20181;-80
2021/07/25 01:46:01;;;;;;;15.03;10.63;;;;;;;;;;5089734;28;20182;-78
2021/07/25 01:48:27;;;;;;;11.63;10.43;;;;;;;;;;5056210;28;20188;-79
2021/07/25 01:50:54;;;;;;;11.93;10.83;;;;;;;;;;5073783;28;20208;-79
2021/07/25 01:53:20;;;;;;;12.73;10.60;;;;;;;;;;5074091;28;20526;-79
2021/07/25 01:55:46;;;;;;;11.30;10.10;;;;;;;;;;5074143;28;20204;-79
2021/07/25 01:58:12;;;;;;;11.40;10.00;;;;;;;;;;5055468;28;20180;-79
2021/07/25 02:00:38;;;;;;;11.90;10.13;;;;;;;;;;5089490;28;20207;-80
2021/07/25 02:03:04;;;;;;;12.10;10.50;;;;;;;;;;5055741;28;20200;-80
2021/07/25 02:05:30;;;;;;;10.90;9.80;;;;;;;;;;5072367;28;20220;-79
2021/07/25 02:07:57;;;;;;;13.30;10.47;;;;;;;;;;5055448;28;20192;-79
2021/07/25 02:10:23;;;;;;;11.70;10.33;;;;;;;;;;5089164;28;20689;-79
2021/07/25 02:12:49;;;;;;;10.77;9.67;;;;;;;;;;5062228;28;20178;-78
2021/07/25 02:15:15;;;;;;;12.03;10.77;;;;;;;;;;5074221;28;20196;-79
2021/07/25 02:17:41;;;;;;;11.80;10.53;;;;;;;;;;5056055;28;20280;-79
2021/07/25 02:20:07;;;;;;;11.60;10.40;;;;;;;;;;5054495;28;20185;-79
2021/07/25 02:22:34;;;;;;;10.93;9.80;;;;;;;;;;5090359;28;20287;-79
2021/07/25 02:25:00;;;;;;;12.57;11.27;;;;;;;;;;5054637;28;20666;-80
2021/07/25 02:27:26;;;;;;;11.63;10.43;;;;;;;;;;5073650;28;20177;-80
2021/07/25 02:29:52;;;;;;;11.20;10.10;;;;;;;;;;5088835;28;20199;-79
2021/07/25 02:32:18;;;;;;;11.27;10.17;;;;;;;;;;5055199;28;20260;-79
2021/07/25 02:34:44;;;;;;;12.13;10.43;;;;;;;;;;5088908;28;20512;-79
2021/07/25 02:37:11;;;;;;;12.10;10.80;;;;;;;;;;5072496;28;20620;-79
2021/07/25 02:39:38;;;;;;;12.23;10.67;;;;;;;;;;5088520;28;20185;-80
2021/07/25 02:42:04;;;;;;;12.83;11.03;;;;;;;;;;5055195;28;20216;-79
2021/07/25 02:44:30;;;;;;;12.13;10.90;;;;;;;;;;5073693;28;20178;-79
2021/07/25 02:46:57;;;;;;;11.93;10.70;;;;;;;;;;5073254;28;20171;-79
2021/07/25 02:49:23;;;;;;;11.33;10.13;;;;;;;;;;5061742;28;20177;-79
2021/07/25 02:51:49;;;;;;;11.90;10.70;;;;;;;;;;5053852;28;20199;-80
2021/07/25 02:54:15;;;;;;;10.87;9.70;;;;;;;;;;5072903;28;20690;-79
2021/07/25 02:56:41;;;;;;;12.57;11.37;;;;;;;;;;5071105;28;20740;-79
2021/07/25 02:59:07;;;;;;;12.87;10.77;;;;;;;;;;5073171;28;20200;-80
2021/07/25 03:01:33;;;;;;;12.70;11.40;;;;;;;;;;5061725;28;20182;-79
2021/07/25 03:03:59;;;;;;;12.57;11.30;;;;;;;;;;5072173;28;20204;-79
2021/07/25 03:06:25;;;;;;;13.27;11.90;;;;;;;;;;5069800;28;20410;-79
2021/07/25 03:08:51;;;;;;;11.90;10.43;;;;;;;;;;5055051;28;20182;-79
2021/07/25 03:11:19;;;;;;;11.60;10.03;;;;;;;;;;5072845;28;20192;-80
2021/07/25 03:13:46;;;;;;;11.07;9.97;;;;;;;;;;5073316;28;20185;-79
2021/07/25 03:16:12;;;;;;;11.60;10.40;;;;;;;;;;5073381;28;20242;-79
2021/07/25 03:18:38;;;;;;;11.10;10.10;;;;;;;;;;5071334;28;20268;-79
2021/07/25 03:21:05;;;;;;;12.10;10.73;;;;;;;;;;5065212;28;20174;-80
2021/07/25 03:23:31;;;;;;;11.43;10.33;;;;;;;;;;5072580;28;20178;-80
2021/07/25 03:25:57;;;;;;;12.57;11.27;;;;;;;;;;5104664;28;20181;-80
2021/07/25 03:28:23;;;;;;;12.10;10.70;;;;;;;;;;5072730;28;20181;-79
2021/07/25 03:30:50;;;;;;;12.13;10.93;;;;;;;;;;5072425;28;20202;-79
2021/07/25 03:33:17;;;;;;;13.67;10.03;;;;;;;;;;5071326;28;20203;-79
2021/07/25 03:35:43;;;;;;;11.57;10.27;;;;;;;;;;5071887;28;20194;-79
2021/07/25 03:38:09;;;;;;;12.20;11.07;;;;;;;;;;5072302;28;20528;-79
2021/07/25 03:40:36;;;;;;;11.43;10.17;;;;;;;;;;5070797;28;20180;-79
2021/07/25 03:43:02;;;;;;;12.47;11.17;;;;;;;;;;5071150;28;20181;-79
2021/07/25 03:45:28;;;;;;;10.53;9.53;;;;;;;;;;5071297;28;20191;-79
2021/07/25 03:47:55;;;;;;;12.27;11.03;;;;;;;;;;5071434;28;20178;-79
2021/07/25 03:50:21;;;;;;;12.90;11.60;;;;;;;;;;5071182;28;20289;-79
2021/07/25 03:52:47;;;;;;;14.03;11.20;;;;;;;;;;5071898;28;20168;-80
2021/07/25 03:55:16;;;;;;;12.80;10.70;;;;;;;;;;5106138;28;20180;-79
2021/07/25 03:57:42;;;;;;;12.27;11.10;;;;;;;;;;5091917;28;20180;-79
2021/07/25 04:00:08;;;;;;;12.40;11.20;;;;;;;;;;5073091;28;20193;-79
2021/07/25 04:02:34;;;;;;;12.90;11.43;;;;;;;;;;5091964;28;20172;-80
2021/07/25 04:05:00;;;;;;;13.63;12.10;;;;;;;;;;5073315;28;20246;-79
2021/07/25 04:07:26;;;;;;;12.93;11.53;;;;;;;;;;5091178;28;20196;-79
2021/07/25 04:09:52;;;;;;;12.50;11.20;;;;;;;;;;5091730;28;20406;-80
2021/07/25 04:12:18;;;;;;;12.43;11.17;;;;;;;;;;5084073;28;20202;-80
2021/07/25 04:14:44;;;;;;;12.50;11.07;;;;;;;;;;5090994;28;20237;-79
2021/07/25 04:17:10;;;;;;;13.53;12.07;;;;;;;;;;5073344;28;20176;-79
2021/07/25 04:19:36;;;;;;;12.97;11.23;;;;;;;;;;5092731;28;20190;-79
2021/07/25 04:22:03;;;;;;;13.03;11.00;;;;;;;;;;5088276;28;20530;-80
2021/07/25 04:24:29;;;;;;;12.47;11.17;;;;;;;;;;5072342;28;20532;-79
2021/07/25 04:26:55;;;;;;;12.13;10.93;;;;;;;;;;5072887;28;20180;-79
2021/07/25 04:29:21;;;;;;;12.43;11.13;;;;;;;;;;5074210;28;20180;-79
2021/07/25 04:31:47;;;;;;;10.70;9.70;;;;;;;;;;5073892;28;20210;-79
2021/07/25 04:34:13;;;;;;;12.50;11.20;;;;;;;;;;5091210;28;20183;-79
2021/07/25 04:36:42;;;;;;;12.43;10.80;;;;;;;;;;5091097;28;20188;-79
2021/07/25 04:39:08;;;;;;;11.30;10.20;;;;;;;;;;5073341;28;20187;-79
2021/07/25 04:41:37;;;;;;;11.13;10.00;;;;;;;;;;5072702;28;20183;-78
2021/07/25 04:44:22;;;;;;;12.53;10.97;;;;;;;;;;5091910;28;20502;-78
2021/07/25 04:46:48;;;;;;;14.73;10.43;;;;;;;;;;5090606;28;20183;-79
2021/07/25 04:49:16;;;;;;;12.17;10.97;;;;;;;;;;5074327;28;20188;-79
2021/07/25 04:51:43;;;;;;;12.63;11.33;;;;;;;;;;5072674;28;20211;-79
2021/07/25 04:54:10;;;;;;;11.73;10.50;;;;;;;;;;5073278;28;20180;-80
2021/07/25 04:56:42;;;;;;;11.30;10.10;;;;;;;;;;5073202;28;20215;-79
2021/07/25 04:59:13;;;;;;;12.43;11.07;;;;;;;;;;5091646;28;20635;-77
2021/07/25 05:01:45;;;;;;;12.83;11.47;;;;;;;;;;5091404;28;20499;-80
2021/07/25 05:04:11;;;;;;;13.63;11.73;;;;;;;;;;5073186;28;20183;-79
2021/07/25 05:06:38;;;;;;;11.80;10.40;;;;;;;;;;5071849;28;20686;-79
2021/07/25 05:09:04;;;;;;;12.03;10.63;;;;;;;;;;5091091;28;20175;-80
2021/07/25 05:11:38;;;;;;;11.97;10.77;;;;;;;;;;5078941;28;20279;-80
2021/07/25 05:14:06;;;;;;;12.97;10.80;;;;;;;;;;5091166;28;20171;-79
2021/07/25 05:16:40;;;;;;;16.47;12.20;;;;;;;;;;5070274;28;20188;-79
2021/07/25 05:19:25;;;;;;;11.30;10.20;;;;;;;;;;5091692;28;20702;-79
2021/07/25 05:22:01;;;;;;;12.30;11.10;;;;;;;;;;5090432;28;20263;-80
2021/07/25 05:24:28;;;;;;;13.20;10.80;;;;;;;;;;5090878;28;20184;-79
2021/07/25 05:26:59;;;;;;;13.07;11.77;;;;;;;;;;5090380;28;20207;-79
2021/07/25 05:29:26;;;;;;;14.33;11.87;;;;;;;;;;5069775;28;20187;-79
2021/07/25 05:31:52;;;;;;;11.87;10.60;;;;;;;;;;5087312;28;20572;-79
2021/07/25 05:34:18;;;;;;;13.87;11.43;;;;;;;;;;5090556;28;20180;-79
2021/07/25 05:36:44;;;;;;;15.67;12.03;;;;;;;;;;5071704;28;20180;-79
2021/07/25 05:39:10;;;;;;;12.60;11.23;;;;;;;;;;5090382;28;20171;-79
2021/07/25 05:41:37;;;;;;;12.93;11.60;;;;;;;;;;5086331;28;20179;-80
2021/07/25 05:44:03;;;;;;;13.47;11.00;;;;;;;;;;5075716;28;20230;-79
2021/07/25 05:46:29;;;;;;;12.20;10.90;;;;;;;;;;5094452;28;20492;-80
2021/07/25 05:48:55;;;;;;;17.33;10.87;;;;;;;;;;5076417;28;20218;-80
2021/07/25 05:51:21;;;;;;;15.13;10.77;;;;;;;;;;5093509;28;20210;-79
2021/07/25 05:53:47;;;;;;;11.17;10.00;;;;;;;;;;5076318;28;20172;-79
2021/07/25 05:56:13;;;;;;;11.23;9.30;;;;;;;;;;5093503;28;20218;-79
2021/07/25 05:58:39;;;;;;;11.80;9.83;;;;;;;;;;5076055;28;20211;-79
2021/07/25 06:01:05;;;;;;;9.63;8.63;;;;;;;;;;5093990;28;20175;-80
2021/07/25 06:03:32;;;;;;;11.47;9.77;;;;;;;;;;5075679;28;20215;-79
2021/07/25 06:05:58;;;;;;;10.20;9.23;;;;;;;;;;5084864;28;20237;-79
2021/07/25 06:08:24;;;;;;;10.73;9.03;;;;;;;;;;5093832;28;20647;-79
2021/07/25 06:10:50;;;;;;;13.60;8.40;;;;;;;;;;5075054;28;20205;-79
2021/07/25 06:13:16;;;;;;;10.23;8.97;;;;;;;;;;5075692;28;20194;-79
2021/07/25 06:15:47;;;;;;;10.70;8.83;;;;;;;;;;5075671;28;20180;-79
2021/07/25 06:18:13;;;;;;;13.67;8.73;;;;;;;;;;5075606;28;20180;-79
2021/07/25 06:20:39;;;;;;;9.20;7.90;;;;;;;;;;5093189;28;20676;-79
2021/07/25 06:23:06;;;;;;;9.30;8.33;;;;;;;;;;5075507;28;20188;-80
2021/07/25 06:25:33;;;;;;;9.20;8.30;;;;;;;;;;5075517;28;20921;-79
2021/07/25 06:28:00;;;;;;;10.00;8.17;;;;;;;;;;5075452;28;20176;-79
2021/07/25 06:30:27;;;;;;;8.73;7.53;;;;;;;;;;5075506;28;20211;-79
2021/07/25 06:33:04;;;;;;;8.53;7.63;;;;;;;;;;5075514;28;20228;-79
2021/07/25 06:35:34;;;;;;;7.70;6.87;;;;;;;;;;5093432;28;20255;-79
2021/07/25 06:38:01;;;;;;;10.53;7.33;;;;;;;;;;5092366;28;20168;-80
2021/07/25 06:40:28;;;;;;;8.10;6.87;;;;;;;;;;5092980;28;20546;-79
2021/07/25 06:42:55;;;;;;;11.10;7.97;;;;;;;;;;5093409;28;20685;-79
2021/07/25 06:45:21;;;;;;;8.77;7.97;;;;;;;;;;5093295;28;20176;-79
2021/07/25 06:47:48;;;;;;;9.13;7.87;;;;;;;;;;5092717;28;20200;-77
2021/07/25 06:50:16;;;;;;;8.23;7.43;;;;;;;;;;5073501;28;20210;-77
2021/07/25 06:52:42;;;;;;;8.50;7.60;;;;;;;;;;5091170;28;20474;-77
2021/07/25 06:55:11;;;;;;;8.97;6.83;;;;;;;;;;5089840;28;20632;-77
2021/07/25 06:57:37;;;;;;;6.73;6.03;;;;;;;;;;5073357;28;20313;-77
2021/07/25 07:00:04;;;;;;;7.50;6.70;;;;;;;;;;5091640;28;20173;-77
2021/07/25 07:02:44;;;;;;;7.00;6.27;;;;;;;;;;5086345;28;20535;-77
2021/07/25 07:05:10;;;;;;;8.00;6.30;;;;;;;;;;5087318;28;20199;-77
2021/07/25 07:07:36;;;;;;;8.37;6.57;;;;;;;;;;5091514;28;20207;-77
2021/07/25 07:10:02;;;;;;;9.00;6.20;;;;;;;;;;5073680;28;20164;-77
2021/07/25 07:12:28;;;;;;;6.57;5.93;;;;;;;;;;5073602;28;20300;-75
2021/07/25 07:14:54;;;;;;;8.10;6.03;;;;;;;;;;5073097;28;20211;-75
2021/07/25 07:17:22;;;;;;;7.23;6.53;;;;;;;;;;5091063;28;20210;-75
2021/07/25 07:19:48;;;;;;;6.80;5.80;;;;;;;;;;5091209;28;20442;-76
2021/07/25 07:22:27;;;;;;;6.93;6.03;;;;;;;;;;5087111;28;20191;-75
2021/07/25 07:24:54;;;;;;;6.77;6.00;;;;;;;;;;5072847;28;20183;-76
2021/07/25 07:27:20;;;;;;;6.97;6.27;;;;;;;;;;5079185;28;20264;-76
2021/07/25 07:29:46;;;;;;;7.33;5.07;;;;;;;;;;5084521;28;20209;-80
2021/07/25 07:32:12;;;;;;;8.03;5.90;;;;;;;;;;5071137;28;20196;-78
2021/07/25 07:34:41;;;;;;;6.30;5.37;;;;;;;;;;5087787;28;20214;-83
2021/07/25 07:37:07;;;;;;;10.53;6.53;;;;;;;;;;5070945;28;20176;-83
2021/07/25 07:39:35;;;;;;;7.57;6.10;;;;;;;;;;5072196;28;20207;-77
2021/07/25 07:42:01;;;;;;;7.00;5.87;;;;;;;;;;5087353;28;20665;-77
2021/07/25 07:44:28;;;;;;;8.33;5.27;;;;;;;;;;5088538;28;20221;-77
2021/07/25 07:46:53;;;;;;;6.97;5.20;;;;;;;;;;5095941;28;20183;-77
2021/07/25 07:49:20;;;;;;;7.27;5.63;;;;;;;;;;5073477;28;20614;-78
2021/07/25 07:51:46;;;;;;;5.70;4.97;;;;;;;;;;5086628;28;20678;-77
2021/07/25 07:54:12;;;;;;;5.93;5.40;;;;;;;;;;5088425;28;20247;-77
2021/07/25 07:56:38;;;;;;;7.73;6.00;;;;;;;;;;5071560;28;20220;-79
2021/07/25 07:59:04;;;;;;;6.93;4.87;;;;;;;;;;5094198;28;20179;-77
2021/07/25 08:01:30;;;;;;;7.27;4.77;;;;;;;;;;5091598;28;20308;-77
2021/07/25 08:03:56;;;;;;;5.43;4.90;;;;;;;;;;5100669;28;20200;-79
2021/07/25 08:06:22;;;;;;;6.20;5.43;;;;;;;;;;5075226;28;20580;-77
2021/07/25 08:08:48;;;;;;;5.90;4.33;;;;;;;;;;5088666;28;20179;-77
2021/07/25 08:11:14;;;;;;;5.87;5.27;;;;;;;;;;5063830;28;20211;-79
2021/07/25 08:13:41;;;;;;;6.03;4.93;;;;;;;;;;5085039;28;20645;-79
2021/07/25 08:16:08;;;;;;;6.23;4.77;;;;;;;;;;5072898;28;20264;-79
2021/07/25 08:18:34;;;;;;;6.30;4.87;;;;;;;;;;5085099;28;20262;-77
2021/07/25 08:21:00;;;;;;;7.13;5.10;;;;;;;;;;5089914;28;20272;-77
2021/07/25 08:23:26;;;;;;;9.70;5.33;;;;;;;;;;5091141;28;20185;-77
2021/07/25 08:25:52;;;;;;;7.50;5.30;;;;;;;;;;5071303;28;20176;-77
2021/07/25 08:28:18;;;;;;;5.97;5.37;;;;;;;;;;5082122;28;20232;-79
2021/07/25 08:30:44;;;;;;;6.00;5.40;;;;;;;;;;5068364;28;20362;-80
2021/07/25 08:33:10;;;;;;;6.07;5.37;;;;;;;;;;5068103;28;20299;-77
2021/07/25 08:35:36;;;;;;;5.87;5.27;;;;;;;;;;5070984;28;20306;-79
2021/07/25 08:38:02;;;;;;;6.73;4.77;;;;;;;;;;5090320;28;20187;-79
2021/07/25 08:40:30;;;;;;;8.27;5.00;;;;;;;;;;5089748;28;20268;-80
2021/07/25 08:43:03;;;;;;;6.00;4.80;;;;;;;;;;5090411;28;20469;-81
2021/07/25 08:45:29;;;;;;;6.87;5.23;;;;;;;;;;5071941;28;20256;-80
2021/07/25 08:48:01;;;;;;;6.27;4.60;;;;;;;;;;5090531;28;20201;-80
2021/07/25 08:50:27;;;;;;;5.00;4.50;;;;;;;;;;5090512;28;20563;-80
2021/07/25 08:52:54;;;;;;;6.30;5.20;;;;;;;;;;5072259;28;20745;-79
2021/07/25 08:55:21;;;;;;;6.60;5.60;;;;;;;;;;5073287;28;20216;-80
2021/07/25 08:57:48;;;;;;;5.80;4.90;;;;;;;;;;5073708;28;20282;-80
2021/07/25 09:00:16;;;;;;;6.23;4.90;;;;;;;;;;5073468;28;20693;-78
2021/07/25 09:02:43;;;;;;;5.23;4.47;;;;;;;;;;5068913;28;20208;-78
2021/07/25 09:05:10;;;;;;;6.93;4.37;;;;;;;;;;5083302;28;20189;-81
2021/07/25 09:07:42;;;;;;;6.47;4.60;;;;;;;;;;5090022;28;20216;-81
2021/07/25 09:10:18;;;;;;;4.37;3.87;;;;;;;;;;5072113;28;20487;-81
2021/07/25 09:12:45;;;;;;;5.37;4.50;;;;;;;;;;5072502;28;20643;-81
2021/07/25 09:15:13;;;;;;;6.63;4.83;;;;;;;;;;5091673;28;20324;-81
2021/07/25 09:17:39;;;;;;;5.37;4.77;;;;;;;;;;5092048;28;20184;-79
2021/07/25 09:20:09;;;;;;;5.30;4.50;;;;;;;;;;5075462;28;20605;-81
2021/07/25 09:22:36;;;;;;;5.27;3.80;;;;;;;;;;5092170;28;20180;-79
2021/07/25 09:25:03;;;;;;;5.53;3.83;;;;;;;;;;5074439;28;20203;-80
2021/07/25 09:27:29;;;;;;;4.47;4.07;;;;;;;;;;5074552;28;20184;-80
2021/07/25 09:29:55;;;;;;;4.23;3.43;;;;;;;;;;5076603;28;20183;-81
2021/07/25 09:32:22;;;;;;;6.33;3.53;;;;;;;;;;5075086;28;20176;-78
2021/07/25 09:34:51;;;;;;;4.57;3.37;;;;;;;;;;5086066;28;20180;-78
2021/07/25 09:37:18;;;;;;;6.03;3.43;;;;;;;;;;5091351;28;20184;-79
2021/07/25 09:39:54;;;;;;;4.27;3.47;;;;;;;;;;5073522;28;20187;-78
2021/07/25 09:42:27;;;;;;;11.40;4.30;;;;;;;;;;5087761;28;20165;-79
2021/07/25 09:44:54;;;;;;;5.67;3.70;;;;;;;;;;5068070;28;20263;-78
2021/07/25 09:47:26;;;;;;;5.03;3.70;;;;;;;;;;5094258;28;20321;-78
2021/07/25 09:49:53;;;;;;;5.70;3.73;;;;;;;;;;5088797;28;20237;-79
2021/07/25 09:52:38;;;;;;;6.53;3.57;;;;;;;;;;5092992;28;20241;-79
2021/07/25 09:55:06;;;;;;;4.93;4.03;;;;;;;;;;5086692;28;20236;-78
2021/07/25 09:57:35;;;;;;;7.43;3.67;;;;;;;;;;5074967;28;20687;-78
2021/07/25 10:00:12;;;;;;;3.90;3.50;;;;;;;;;;5095314;28;20175;-78
2021/07/25 10:02:46;;;;;;;3.93;3.53;;;;;;;;;;5085671;28;20650;-78
2021/07/25 10:05:19;;;;;;;4.25;3.08;;;;;;;;;;5074895;28;20424;-80
2021/07/25 10:07:46;;;;;;;7.43;3.60;;;;;;;;;;5075145;28;20227;-82
2021/07/25 10:10:16;;;;;;;4.40;3.50;;;;;;;;;;5094337;28;20172;-81
2021/07/25 10:12:44;;;;;;;3.87;3.03;;;;;;;;;;5075313;28;20236;-80
2021/07/25 10:15:11;;;;;;;5.37;3.13;;;;;;;;;;5075671;28;20187;-80
2021/07/25 10:17:38;;;;;;;5.47;3.30;;;;;;;;;;5093646;28;20172;-79
2021/07/25 10:20:05;;;;;;;7.90;3.63;;;;;;;;;;5062249;28;20645;-80
2021/07/25 10:22:32;;;;;;;5.93;3.37;;;;;;;;;;5092891;28;20172;-80
2021/07/25 10:25:01;;;;;;;4.03;3.50;;;;;;;;;;5075926;28;20715;-81
2021/07/25 10:27:28;;;;;;;4.13;3.20;;;;;;;;;;5066722;28;20664;-81
2021/07/25 10:29:55;;;;;;;5.60;3.57;;;;;;;;;;5072237;28;20180;-81
2021/07/25 10:32:21;;;;;;;5.30;3.20;;;;;;;;;;5076632;28;20271;-83
2021/07/25 10:34:48;;;;;;;6.73;3.67;;;;;;;;;;5094860;28;20168;-83
2021/07/25 10:37:15;;;;;;;5.83;3.53;;;;;;;;;;5075737;28;20690;-82
2021/07/25 10:39:52;;;;;;;5.13;3.60;;;;;;;;;;5091314;28;20187;-82
2021/07/25 10:42:20;;;;;;;4.33;2.90;;;;;;;;;;5061969;28;20172;-82
2021/07/25 10:44:46;;;;;;;3.87;2.97;;;;;;;;;;5076494;28;20183;-83
2021/07/25 10:47:26;;;;;;;5.03;3.10;;;;;;;;;;5094250;28;20259;-83
2021/07/25 10:50:15;;;;;;;6.17;3.40;;;;;;;;;;5110003;28;20168;-83
2021/07/25 10:52:47;;;;;;;5.20;3.90;;;;;;;;;;5093780;28;20619;-83
2021/07/25 10:55:33;;;;;;;4.17;2.90;;;;;;;;;;5091966;28;20258;-82
2021/07/25 10:58:03;;;;;;;5.60;3.27;;;;;;;;;;5090284;28;20241;-84
2021/07/25 11:00:49;;;;;;;4.00;3.13;;;;;;;;;;5109122;28;20191;-83
2021/07/25 11:03:31;;;;;;;5.63;3.40;;;;;;;;;;5075542;28;20188;-83
2021/07/25 11:06:00;;;;;;;3.80;3.13;;;;;;;;;;5073025;28;20192;-83
2021/07/25 11:08:32;;;;;;;7.80;3.20;;;;;;;;;;5070769;28;20173;-82
2021/07/25 11:10:58;;;;;;;2.87;2.67;;;;;;;;;;5078021;28;20282;-83
2021/07/25 11:13:53;;;;;;;5.03;3.17;;;;;;;;;;5094308;28;20209;-83
2021/07/25 11:16:32;;;;;;;3.53;2.50;;;;;;;;;;5048322;28;20219;-83
2021/07/25 11:18:58;;;;;;;4.87;3.17;;;;;;;;;;5077712;28;20168;-81
2021/07/25 11:21:45;;;;;;;5.43;2.87;;;;;;;;;;5077071;28;20188;-81
2021/07/25 11:24:23;;;;;;;7.57;2.93;;;;;;;;;;5076712;28;20176;-82
2021/07/25 11:26:50;;;;;;;4.10;3.13;;;;;;;;;;5074378;28;20274;-84
2021/07/25 11:29:17;;;;;;;5.30;3.17;;;;;;;;;;5076297;28;20176;-81
2021/07/25 11:31:44;;;;;;;6.00;2.80;;;;;;;;;;5095247;28;20204;-79
2021/07/25 11:34:14;;;;;;;4.63;3.00;;;;;;;;;;5111951;28;20577;-79
2021/07/25 11:36:41;;;;;;;6.47;2.80;;;;;;;;;;5095642;28;20172;-82
2021/07/25 11:39:08;;;;;;;4.73;3.20;;;;;;;;;;5109571;28;20245;-82
2021/07/25 11:41:35;;;;;;;6.47;3.80;;;;;;;;;;5072881;28;20211;-82
2021/07/25 11:44:06;;;;;;;4.43;3.27;;;;;;;;;;5075450;28;20264;-81
2021/07/25 11:46:36;;;;;;;3.83;2.80;;;;;;;;;;5072696;28;20550;-84
2021/07/25 11:49:10;;;;;;;3.87;2.73;;;;;;;;;;5074880;28;20224;-82
2021/07/25 11:51:36;;;;;;;6.67;3.17;;;;;;;;;;5074174;28;20667;-81
2021/07/25 11:54:03;;;;;;;4.70;4.03;;;;;;;;;;5075913;28;20173;-83
2021/07/25 11:56:29;;;;;;;6.33;3.07;;;;;;;;;;5075199;28;20324;-81
2021/07/25 11:59:13;;;;;;;4.23;3.20;;;;;;;;;;5076109;28;20189;-81
2021/07/25 12:01:39;;;;;;;5.00;2.70;;;;;;;;;;5070080;28;20174;-81
2021/07/25 12:04:17;;;;;;;4.87;2.77;;;;;;;;;;5073686;28;20617;-81
2021/07/25 12:06:43;;;;;;;4.27;3.00;;;;;;;;;;5067010;28;20593;-81
2021/07/25 12:09:10;;;;;;;4.17;2.83;;;;;;;;;;5075914;28;20670;-81
2021/07/25 12:11:37;;;;;;;3.50;2.83;;;;;;;;;;5108797;28;20246;-81
2021/07/25 12:14:03;;;;;;;3.23;2.87;;;;;;;;;;5073409;28;20177;-81
2021/07/25 12:16:49;;;;;;;5.93;2.80;;;;;;;;;;5064758;28;20191;-81
2021/07/25 12:19:16;;;;;;;3.47;2.80;;;;;;;;;;5067137;28;20252;-79
2021/07/25 12:21:43;;;;;;;5.60;3.27;;;;;;;;;;5071338;28;20186;-80
2021/07/25 12:24:25;;;;;;;3.63;2.83;;;;;;;;;;5089486;28;20194;-78
2021/07/25 12:26:51;;;;;;;3.10;2.53;;;;;;;;;;5065083;28;20194;-79
2021/07/25 12:29:43;;;;;;;2.97;2.67;;;;;;;;;;5073792;28;20182;-79
2021/07/25 12:32:19;;;;;;;3.00;2.70;;;;;;;;;;5064939;28;20637;-79
2021/07/25 12:34:45;;;;;;;2.93;2.57;;;;;;;;;;5086752;28;20181;-78
2021/07/25 12:37:27;;;;;;;5.77;3.10;;;;;;;;;;5091729;28;20626;-79
2021/07/25 12:40:23;;;;;;;3.23;2.57;;;;;;;;;;5102261;28;20189;-79
2021/07/25 12:42:51;;;;;;;3.13;2.80;;;;;;;;;;5068354;28;20197;-78
2021/07/25 12:45:27;;;;;;;3.20;2.77;;;;;;;;;;5091866;28;20642;-78
2021/07/25 12:48:08;;;;;;;4.10;3.33;;;;;;;;;;5091120;28;20284;-78
2021/07/25 12:51:41;;;;;;;3.77;2.60;;;;;;;;;;5084344;28;20677;-78
2021/07/25 12:53:40;;;;;;;5.73;2.63;;;;;;;;;;5079710;28;20183;-77
2021/07/25 12:56:10;;;;;;;5.23;2.40;;;;;;;;;;5108164;28;20226;-79
2021/07/25 12:58:38;;;;;;;4.50;2.83;;;;;;;;;;5076092;28;20204;-78
2021/07/25 13:01:17;;;;;;;5.43;3.30;;;;;;;;;;5091824;28;20221;-77
2021/07/25 13:03:52;;;;;;;3.50;2.70;;;;;;;;;;5067650;28;20171;-79
2021/07/25 13:06:26;;;;;;;3.47;3.03;;;;;;;;;;5085772;28;20541;-78
2021/07/25 13:09:01;;;;;;;3.10;2.70;;;;;;;;;;5065401;28;20548;-79
2021/07/25 13:11:29;;;;;;;3.10;2.57;;;;;;;;;;5087452;28;20270;-79
2021/07/25 13:13:59;;;;;;;3.83;2.80;;;;;;;;;;5076341;28;20178;-79
2021/07/25 13:16:25;;;;;;;2.83;2.17;;;;;;;;;;5089622;28;20194;-79
2021/07/25 13:18:53;;;;;;;3.40;2.10;;;;;;;;;;5077227;28;20203;-79
2021/07/25 13:21:19;;;;;;;2.57;2.10;;;;;;;;;;5076550;28;20262;-79
2021/07/25 13:23:46;;;;;;;2.53;2.30;;;;;;;;;;5094692;28;20194;-79
2021/07/25 13:26:12;;;;;;;4.70;2.40;;;;;;;;;;5110037;28;20198;-79
2021/07/25 13:28:38;;;;;;;2.97;2.50;;;;;;;;;;5076666;28;20183;-80
2021/07/25 13:31:05;;;;;;;3.57;2.93;;;;;;;;;;5076305;28;20191;-80
2021/07/25 13:33:34;;;;;;;4.23;2.60;;;;;;;;;;5092106;28;20179;-80
2021/07/25 13:36:01;;;;;;;3.17;2.73;;;;;;;;;;5094349;28;20270;-79
2021/07/25 13:38:31;;;;;;;3.03;2.30;;;;;;;;;;5081620;28;20202;-80
2021/07/25 13:40:57;;;;;;;2.93;2.20;;;;;;;;;;5079082;28;20209;-80
2021/07/25 13:43:24;;;;;;;3.10;2.50;;;;;;;;;;5076217;28;20645;-79
2021/07/25 13:46:01;;;;;;;2.60;2.40;;;;;;;;;;5111093;28;20367;-81
2021/07/25 13:48:29;;;;;;;2.60;2.40;;;;;;;;;;5073684;28;20208;-81
2021/07/25 13:50:55;;;;;;;2.70;2.33;;;;;;;;;;5089541;28;20209;-82
2021/07/25 13:53:22;;;;;;;3.60;2.30;;;;;;;;;;5095515;28;20176;-81
2021/07/25 13:55:48;;;;;;;3.23;2.93;;;;;;;;;;5110954;28;20265;-81
2021/07/25 13:58:14;;;;;;;2.90;2.57;;;;;;;;;;5077366;28;20190;-82
2021/07/25 14:00:40;;;;;;;3.03;2.40;;;;;;;;;;5077495;28;20178;-82
2021/07/25 14:03:06;;;;;;;2.70;2.50;;;;;;;;;;5075478;28;20194;-82
2021/07/25 14:05:34;;;;;;;3.40;3.10;;;;;;;;;;5080482;28;20184;-81
2021/07/25 14:08:04;;;;;;;3.03;2.20;;;;;;;;;;5068484;28;20199;-82
2021/07/25 14:10:30;;;;;;;3.67;2.63;;;;;;;;;;5065296;28;20322;-82
2021/07/25 14:12:57;;;;;;;2.60;2.40;;;;;;;;;;5075164;28;20180;-82
2021/07/25 14:15:23;;;;;;;3.53;2.47;;;;;;;;;;5110732;28;20204;-81
2021/07/25 14:17:51;;;;;;;3.40;2.87;;;;;;;;;;5077776;28;20194;-82
2021/07/25 14:20:18;;;;;;;6.70;2.80;;;;;;;;;;5079598;28;20185;-81
2021/07/25 14:22:44;;;;;;;3.07;2.33;;;;;;;;;;5077331;28;20183;-81
2021/07/25 14:25:11;;;;;;;4.40;2.43;;;;;;;;;;5077737;28;20360;-82
2021/07/25 14:27:38;;;;;;;2.80;2.20;;;;;;;;;;5077084;28;20181;-81
2021/07/25 14:30:08;;;;;;;3.83;2.70;;;;;;;;;;5076771;28;20179;-81
2021/07/25 14:32:34;;;;;;;3.67;2.53;;;;;;;;;;5089578;28;20245;-81
2021/07/25 14:35:01;;;;;;;4.10;3.23;;;;;;;;;;5076098;28;20233;-82
2021/07/25 14:37:27;;;;;;;2.87;2.50;;;;;;;;;;5065669;28;20240;-82